Hovedside
METAR-TAF:

METAR-TAF

Lufthavner :

Flystasjon

Linköping, Sverige

breddegrad: 58-24N, lengdegrad: 015-31E, høyde over havet: 93 m

Gjeldene værobservasjon

Denne rapporten ble laget for 41 minutter siden, klokken 18:50 UTC
Vind 16 kt fra Vest-sørvest
Temperatur 6°C
Luftfuktighet 61%
Trykk 1017 hPa
Sikt 10 km eller mer

METAR: ESCF 231850Z AUTO 24016KT 9999 NCD 06/M01 Q1017

Tid: 20:31 (19:31 UTC)


TAF: fraværende

Værobservasjoner og værvarsel for over 4000 flyplasser (METAR- og TAF-rapporter).

Tilgjengelige stasjoner er representert av de røde og gule prikkene på kartet.

Hold musepekeren over prikken for å se navnet på stasjonen.

Klikk så for å se værobservasjoner og -varsler.

For å forandre kartet kan du klikke på den grønne knappen med svart kryss for å zoome inn, på den grønne knappen med strek for å zoome ut, eller på de grønne pilene for å se tilstøtende kart.


METAR-TAF: